createdAt,value
2019-05-05T00:00:56.904Z,112.08
2019-05-05T00:03:36.074Z,121.30
2019-05-05T00:06:12.159Z,134.10
2019-05-05T00:08:47.522Z,109.35
2019-05-05T00:11:25.950Z,59.13
2019-05-05T00:14:16.717Z,51.35
2019-05-05T00:17:01.759Z,53.58
2019-05-05T00:19:36.175Z,111.17
2019-05-05T00:22:10.858Z,95.47
2019-05-05T00:24:45.222Z,93.52
2019-05-05T00:27:19.983Z,60.85
2019-05-05T00:29:55.112Z,43.35
2019-05-05T00:32:29.503Z,30.12
2019-05-05T00:35:04.464Z,30.75
2019-05-05T00:37:40.006Z,111.47
2019-05-05T00:40:16.543Z,89.30
2019-05-05T00:42:52.285Z,49.67
2019-05-05T00:45:29.217Z,29.42
2019-05-05T00:48:07.439Z,20.23
2019-05-05T00:50:41.660Z,42.83
2019-05-05T00:53:16.602Z,45.20
2019-05-05T00:55:50.906Z,54.45
2019-05-05T00:58:25.776Z,71.33
2019-05-05T01:01:17.313Z,86.90
2019-05-05T01:03:54.623Z,64.27
2019-05-05T01:06:36.127Z,77.25
2019-05-05T01:09:14.780Z,91.28
2019-05-05T01:11:49.790Z,41.28
2019-05-05T01:14:26.186Z,22.35
2019-05-05T01:17:00.446Z,19.05
2019-05-05T01:19:35.446Z,22.40
2019-05-05T01:22:10.971Z,22.93
2019-05-05T01:24:46.606Z,22.50
2019-05-05T01:27:20.787Z,29.40
2019-05-05T01:29:55.352Z,55.73
2019-05-05T01:32:44.619Z,31.85
2019-05-05T01:35:20.249Z,26.17
2019-05-05T01:38:04.904Z,22.73
2019-05-05T01:40:57.995Z,40.52
2019-05-05T01:43:34.537Z,25.88
2019-05-05T01:46:08.392Z,34.80
2019-05-05T01:48:44.511Z,33.25
2019-05-05T01:51:19.376Z,57.15
2019-05-05T01:53:54.526Z,23.87
2019-05-05T01:56:31.527Z,30.95
2019-05-05T01:59:06.044Z,31.82
2019-05-05T02:01:40.849Z,26.50
2019-05-05T02:04:16.065Z,30.35
2019-05-05T02:06:50.648Z,27.00
2019-05-05T02:09:28.798Z,26.23
2019-05-05T02:12:05.177Z,26.15
2019-05-05T02:14:39.380Z,51.63
2019-05-05T02:17:14.933Z,59.38
2019-05-05T02:19:50.940Z,48.20
2019-05-05T02:22:25.676Z,64.60
2019-05-05T02:25:01.190Z,56.92
2019-05-05T02:27:35.784Z,74.85
2019-05-05T02:30:17.527Z,44.55
2019-05-05T02:32:55.415Z,39.98
2019-05-05T02:35:35.311Z,55.03
2019-05-05T02:38:11.790Z,32.48
2019-05-05T02:40:46.955Z,25.52
2019-05-05T02:43:25.079Z,21.55
2019-05-05T02:46:25.327Z,23.42
2019-05-05T02:49:05.006Z,22.82
2019-05-05T02:51:39.243Z,21.80
2019-05-05T02:54:15.444Z,25.60
2019-05-05T02:56:54.101Z,29.07
2019-05-05T02:59:32.681Z,18.73
2019-05-05T03:02:08.842Z,15.45
2019-05-05T03:04:44.610Z,16.17
2019-05-05T03:07:21.111Z,17.15
2019-05-05T03:09:56.654Z,13.58
2019-05-05T03:12:34.486Z,15.28
2019-05-05T03:15:09.229Z,16.52
2019-05-05T03:17:44.500Z,15.30
2019-05-05T03:20:20.102Z,19.70
2019-05-05T03:22:54.737Z,14.85
2019-05-05T03:25:30.599Z,17.92
2019-05-05T03:28:05.343Z,14.55
2019-05-05T03:30:40.120Z,13.08
2019-05-05T03:33:15.996Z,20.82
2019-05-05T03:35:51.145Z,18.73
2019-05-05T03:38:27.401Z,16.23
2019-05-05T03:41:03.720Z,17.45
2019-05-05T03:43:40.851Z,16.80
2019-05-05T03:46:15.571Z,20.82
2019-05-05T03:48:50.917Z,25.25
2019-05-05T03:51:25.601Z,27.10
2019-05-05T03:54:00.592Z,14.98
2019-05-05T03:56:35.572Z,23.57
2019-05-05T03:59:10.946Z,21.27
2019-05-05T04:01:46.595Z,17.87
2019-05-05T04:04:25.626Z,17.45
2019-05-05T04:07:00.452Z,20.55
2019-05-05T04:09:34.968Z,19.73
2019-05-05T04:12:09.528Z,15.53
2019-05-05T04:14:44.838Z,19.62
2019-05-05T04:17:20.592Z,19.50
2019-05-05T04:19:56.115Z,58.15
2019-05-05T04:22:34.173Z,25.35
2019-05-05T04:25:13.801Z,22.62
2019-05-05T04:27:50.617Z,20.60
2019-05-05T04:30:26.734Z,22.27
2019-05-05T04:33:03.901Z,17.73
2019-05-05T04:35:38.645Z,16.77
2019-05-05T04:38:13.927Z,21.15
2019-05-05T04:41:13.869Z,15.58
2019-05-05T04:43:45.126Z,18.87
2019-05-05T04:46:20.851Z,30.60
2019-05-05T04:48:58.459Z,22.35
2019-05-05T04:51:46.637Z,16.90
2019-05-05T04:54:26.517Z,14.85
2019-05-05T04:57:04.487Z,16.37
2019-05-05T04:59:40.820Z,22.77
2019-05-05T05:02:20.176Z,17.35
2019-05-05T05:04:59.005Z,12.55
2019-05-05T05:07:34.454Z,17.57
2019-05-05T05:10:10.201Z,25.50
2019-05-05T05:12:44.655Z,22.20
2019-05-05T05:15:19.820Z,26.65
2019-05-05T05:17:57.309Z,20.88
2019-05-05T05:20:33.989Z,15.43
2019-05-05T05:23:09.938Z,17.75
2019-05-05T05:25:44.533Z,16.90
2019-05-05T05:28:19.278Z,13.83
2019-05-05T05:30:55.838Z,18.82
2019-05-05T05:33:30.454Z,11.70
2019-05-05T05:36:07.275Z,15.45
2019-05-05T05:38:46.589Z,16.45
2019-05-05T05:41:40.555Z,13.45
2019-05-05T05:44:19.112Z,12.47
2019-05-05T05:47:03.931Z,10.55
2019-05-05T05:49:43.895Z,11.65
2019-05-05T05:52:19.493Z,11.35
2019-05-05T05:54:57.995Z,16.05
2019-05-05T05:57:34.502Z,15.05
2019-05-05T06:00:09.869Z,21.93
2019-05-05T06:02:47.377Z,12.80
2019-05-05T06:05:23.626Z,13.75
2019-05-05T06:07:59.172Z,14.07
2019-05-05T06:10:34.791Z,13.53
2019-05-05T06:13:10.083Z,12.18
2019-05-05T06:15:44.858Z,14.28
2019-05-05T06:18:20.648Z,13.20
2019-05-05T06:20:55.212Z,11.40
2019-05-05T06:23:30.003Z,11.08
2019-05-05T06:26:06.827Z,11.22
2019-05-05T06:28:51.084Z,9.88
2019-05-05T06:31:27.977Z,11.95
2019-05-05T06:34:07.952Z,15.50
2019-05-05T06:36:44.441Z,10.65
2019-05-05T06:39:19.134Z,15.50
2019-05-05T06:42:02.091Z,13.38
2019-05-05T06:44:40.918Z,11.53
2019-05-05T06:47:20.766Z,16.93
2019-05-05T06:49:56.922Z,22.07
2019-05-05T06:52:43.782Z,24.92
2019-05-05T06:55:09.944Z,14.40
2019-05-05T06:57:44.776Z,12.43
2019-05-05T07:00:20.924Z,13.65
2019-05-05T07:02:57.466Z,11.95
2019-05-05T07:05:34.071Z,13.53
2019-05-05T07:08:09.922Z,12.80
2019-05-05T07:10:45.593Z,12.10
2019-05-05T07:13:24.336Z,9.30
2019-05-05T07:15:59.982Z,11.35
2019-05-05T07:18:36.867Z,11.40
2019-05-05T07:21:14.083Z,8.23
2019-05-05T07:23:49.376Z,7.62
2019-05-05T07:26:25.241Z,9.88
2019-05-05T07:29:00.631Z,7.15
2019-05-05T07:31:36.359Z,15.08
2019-05-05T07:34:13.570Z,10.53
2019-05-05T07:36:48.857Z,11.85
2019-05-05T07:39:23.781Z,5.67
2019-05-05T07:41:58.815Z,8.00
2019-05-05T07:44:33.936Z,7.55
2019-05-05T07:47:08.664Z,24.07
2019-05-05T07:49:44.147Z,23.70
2019-05-05T07:52:18.778Z,18.20
2019-05-05T07:54:55.143Z,14.93
2019-05-05T07:57:31.092Z,13.35
2019-05-05T08:00:07.269Z,23.92
2019-05-05T08:02:43.824Z,26.30
2019-05-05T08:05:18.167Z,15.15
2019-05-05T08:07:53.893Z,15.20
2019-05-05T08:10:29.643Z,16.27
2019-05-05T08:13:05.579Z,17.48
2019-05-05T08:15:54.529Z,9.68
2019-05-05T08:18:24.319Z,10.45
2019-05-05T08:21:06.038Z,10.10
2019-05-05T08:23:48.628Z,9.58
2019-05-05T08:26:44.673Z,8.83
2019-05-05T08:29:34.389Z,9.45
2019-05-05T08:32:13.857Z,13.58
2019-05-05T08:34:59.891Z,11.12
2019-05-05T08:37:25.938Z,16.02
2019-05-05T08:40:04.341Z,18.02
2019-05-05T08:42:40.415Z,19.05
2019-05-05T08:45:15.030Z,21.30
2019-05-05T08:47:49.813Z,11.05
2019-05-05T08:50:27.091Z,13.05
2019-05-05T08:53:01.684Z,34.20
2019-05-05T08:55:36.586Z,18.57
2019-05-05T08:58:11.330Z,19.73
2019-05-05T09:00:46.139Z,16.07
2019-05-05T09:03:21.243Z,17.17
2019-05-05T09:05:56.144Z,18.75
2019-05-05T09:08:30.714Z,15.35
2019-05-05T09:11:05.254Z,17.32
2019-05-05T09:13:41.006Z,18.57
2019-05-05T09:16:16.105Z,11.50
2019-05-05T09:19:03.967Z,14.25
2019-05-05T09:21:39.373Z,23.30
2019-05-05T09:24:33.962Z,26.33
2019-05-05T09:27:14.152Z,18.87
2019-05-05T09:29:50.035Z,18.25
2019-05-05T09:32:26.632Z,22.93
2019-05-05T09:35:01.453Z,63.23
2019-05-05T09:37:36.233Z,54.42
2019-05-05T09:40:13.745Z,56.48
2019-05-05T09:42:48.418Z,31.10
2019-05-05T09:45:24.438Z,25.50
2019-05-05T09:47:58.948Z,31.35
2019-05-05T09:50:34.179Z,17.20
2019-05-05T09:53:09.153Z,16.42
2019-05-05T09:55:44.971Z,11.68
2019-05-05T09:58:21.021Z,14.20
2019-05-05T10:00:57.761Z,24.20
2019-05-05T10:03:33.960Z,19.00
2019-05-05T10:06:08.265Z,19.23
2019-05-05T10:09:02.475Z,31.25
2019-05-05T10:11:38.223Z,24.30
2019-05-05T10:14:14.359Z,15.65
2019-05-05T10:16:48.312Z,21.42
2019-05-05T10:19:24.426Z,22.07
2019-05-05T10:21:59.148Z,24.77
2019-05-05T10:24:37.091Z,21.40
2019-05-05T10:27:13.833Z,23.87
2019-05-05T10:29:48.389Z,18.17
2019-05-05T10:32:24.348Z,22.48
2019-05-05T10:35:04.195Z,21.52
2019-05-05T10:37:37.728Z,17.57
2019-05-05T10:40:14.062Z,19.07
2019-05-05T10:42:54.528Z,33.95
2019-05-05T10:45:30.111Z,37.53
2019-05-05T10:48:24.321Z,28.67
2019-05-05T10:53:31.450Z,18.23
2019-05-05T10:56:08.172Z,18.30
2019-05-05T10:58:44.124Z,33.55
2019-05-05T11:01:18.752Z,36.77
2019-05-05T11:03:55.073Z,47.62
2019-05-05T11:06:35.405Z,39.83
2019-05-05T11:09:13.815Z,35.45
2019-05-05T11:11:47.853Z,28.42
2019-05-05T11:14:22.353Z,35.05
2019-05-05T11:17:03.941Z,36.83
2019-05-05T11:19:40.378Z,44.77
2019-05-05T11:22:19.642Z,61.50
2019-05-05T11:25:00.681Z,69.45
2019-05-05T11:27:34.516Z,37.70
2019-05-05T11:30:14.485Z,39.80
2019-05-05T11:33:06.999Z,36.95
2019-05-05T11:36:04.342Z,85.03
2019-05-05T11:38:41.223Z,92.55
2019-05-05T11:41:15.651Z,108.72
2019-05-05T11:43:53.344Z,107.22
2019-05-05T11:46:30.595Z,99.00
2019-05-05T11:49:09.348Z,94.28
2019-05-05T11:51:45.486Z,48.55
2019-05-05T11:54:24.535Z,35.58
2019-05-05T11:57:00.493Z,36.38
2019-05-05T11:59:38.930Z,65.78
2019-05-05T12:02:33.572Z,75.35
2019-05-05T12:05:24.394Z,71.60
2019-05-05T12:08:10.966Z,72.25
2019-05-05T12:10:54.052Z,45.70
2019-05-05T12:13:35.606Z,45.28
2019-05-05T12:16:20.540Z,43.95
2019-05-05T12:19:17.916Z,64.25
2019-05-05T12:21:54.563Z,98.00
2019-05-05T12:24:29.779Z,73.52
2019-05-05T12:27:17.706Z,56.68
2019-05-05T12:29:54.555Z,35.70
2019-05-05T12:32:29.035Z,24.47
2019-05-05T12:35:04.821Z,106.72
2019-05-05T12:37:44.446Z,88.27
2019-05-05T12:40:19.724Z,384.20
2019-05-05T12:42:54.420Z,164.13
2019-05-05T12:45:31.410Z,67.35
2019-05-05T12:48:10.913Z,49.35
2019-05-05T12:50:50.267Z,38.23
2019-05-05T12:53:26.911Z,23.62
2019-05-05T12:56:16.660Z,31.02
2019-05-05T12:58:57.689Z,22.85
2019-05-05T13:01:36.717Z,18.67
2019-05-05T13:04:14.519Z,19.77
2019-05-05T13:06:54.014Z,23.98
2019-05-05T13:09:37.788Z,36.23
2019-05-05T13:12:15.039Z,34.95
2019-05-05T13:14:58.125Z,31.37
2019-05-05T13:17:38.415Z,22.77
2019-05-05T13:20:15.713Z,17.10
2019-05-05T13:23:05.050Z,18.73
2019-05-05T13:25:55.356Z,21.70
2019-05-05T13:28:20.992Z,30.23
2019-05-05T13:31:04.495Z,30.25
2019-05-05T13:33:54.794Z,41.35
2019-05-05T13:36:34.250Z,49.73
2019-05-05T13:39:14.606Z,62.62
2019-05-05T13:41:55.678Z,64.07
2019-05-05T13:44:33.709Z,65.60
2019-05-05T13:47:13.148Z,63.10
2019-05-05T13:49:56.321Z,51.20
2019-05-05T13:53:03.785Z,49.58
2019-05-05T13:55:41.834Z,50.90
2019-05-05T13:58:18.038Z,56.00
2019-05-05T14:03:51.391Z,87.33
2019-05-05T14:06:29.504Z,83.97
2019-05-05T14:09:13.895Z,83.80
2019-05-05T14:14:38.133Z,69.85
2019-05-05T14:17:30.059Z,70.92
2019-05-05T14:20:11.868Z,69.92
2019-05-05T14:22:54.458Z,67.97
2019-05-05T14:25:45.458Z,63.58
2019-05-05T14:28:23.325Z,84.05
2019-05-05T14:31:05.244Z,99.47
2019-05-05T14:33:58.106Z,184.87
2019-05-05T14:36:38.744Z,104.97
2019-05-05T14:39:19.010Z,79.15
2019-05-05T14:41:58.828Z,91.15
2019-05-05T14:44:46.409Z,90.10
2019-05-05T14:47:28.934Z,82.20
2019-05-05T14:52:44.091Z,111.03
2019-05-05T14:55:22.442Z,82.25
2019-05-05T15:00:59.561Z,28.70
2019-05-05T15:03:38.411Z,42.27
2019-05-05T15:06:19.357Z,95.97
2019-05-05T15:09:03.942Z,54.00
2019-05-05T15:12:04.720Z,51.65
2019-05-05T15:14:39.878Z,57.95
2019-05-05T15:17:21.364Z,61.70
2019-05-05T15:20:03.104Z,46.73
2019-05-05T15:22:44.684Z,53.65
2019-05-05T15:25:20.574Z,58.48
2019-05-05T15:27:55.326Z,58.20
2019-05-05T15:30:39.538Z,38.10
2019-05-05T15:33:15.285Z,38.08
2019-05-05T15:35:54.627Z,27.50
2019-05-05T15:38:34.781Z,24.40
2019-05-05T15:41:14.521Z,19.37
2019-05-05T15:43:54.370Z,21.77
2019-05-05T15:46:35.127Z,18.48
2019-05-05T15:49:27.092Z,17.35
2019-05-05T15:52:07.257Z,21.68
2019-05-05T15:54:45.118Z,14.53
2019-05-05T15:57:20.365Z,21.52
2019-05-05T15:59:56.217Z,20.97
2019-05-05T16:02:38.786Z,36.50
2019-05-05T16:05:20.518Z,35.92
2019-05-05T16:08:15.437Z,27.90
2019-05-05T16:10:55.568Z,21.27
2019-05-05T16:13:35.479Z,14.50
2019-05-05T16:16:16.178Z,13.85
2019-05-05T16:19:05.659Z,11.30
2019-05-05T16:21:39.597Z,14.03
2019-05-05T16:24:19.155Z,11.55
2019-05-05T16:26:53.752Z,10.08
2019-05-05T16:29:34.580Z,10.28
2019-05-05T16:32:19.602Z,10.18
2019-05-05T16:34:48.328Z,7.95
2019-05-05T16:37:25.677Z,13.13
2019-05-05T16:40:00.057Z,10.95
2019-05-05T16:42:38.198Z,9.75
2019-05-05T16:45:16.265Z,12.58
2019-05-05T16:47:54.564Z,11.28
2019-05-05T16:50:29.268Z,9.88
2019-05-05T16:53:07.745Z,11.25
2019-05-05T16:55:45.137Z,11.78
2019-05-05T16:58:20.851Z,15.80
2019-05-05T17:00:57.402Z,19.48
2019-05-05T17:03:32.145Z,21.48
2019-05-05T17:06:06.487Z,16.67
2019-05-05T17:08:44.200Z,20.68
2019-05-05T17:11:19.771Z,18.27
2019-05-05T17:13:55.640Z,17.35
2019-05-05T17:16:35.476Z,14.07
2019-05-05T17:19:11.193Z,18.80
2019-05-05T17:22:04.031Z,14.47
2019-05-05T17:24:38.941Z,12.20
2019-05-05T17:27:14.916Z,12.28
2019-05-05T17:29:49.507Z,15.72
2019-05-05T17:32:27.036Z,12.13
2019-05-05T17:35:03.656Z,8.13
2019-05-05T17:37:38.533Z,10.10
2019-05-05T17:40:24.229Z,9.13
2019-05-05T17:43:21.854Z,8.28
2019-05-05T17:46:03.758Z,8.38
2019-05-05T17:48:53.846Z,6.25
2019-05-05T17:51:35.820Z,7.70
2019-05-05T17:54:11.880Z,6.95
2019-05-05T17:56:47.464Z,6.67
2019-05-05T17:59:23.545Z,6.55
2019-05-05T18:01:57.746Z,6.70
2019-05-05T18:04:33.790Z,7.47
2019-05-05T18:07:09.298Z,11.53
2019-05-05T18:10:04.130Z,12.33
2019-05-05T18:12:56.516Z,7.17
2019-05-05T18:15:51.153Z,8.30
2019-05-05T18:18:25.690Z,6.92
2019-05-05T18:21:00.943Z,6.58
2019-05-05T18:23:36.611Z,6.42
2019-05-05T18:26:11.014Z,7.40
2019-05-05T18:28:48.226Z,7.03
2019-05-05T18:31:24.255Z,5.83
2019-05-05T18:33:59.771Z,7.67
2019-05-05T18:36:34.207Z,5.08
2019-05-05T18:39:09.851Z,5.87
2019-05-05T18:41:46.015Z,8.25
2019-05-05T18:44:24.636Z,6.20
2019-05-05T18:47:15.729Z,7.12
2019-05-05T18:49:48.003Z,9.13
2019-05-05T18:52:24.310Z,8.38
2019-05-05T18:54:58.302Z,8.55
2019-05-05T18:57:34.136Z,7.45
2019-05-05T19:00:10.462Z,8.28
2019-05-05T19:02:56.408Z,9.18
2019-05-05T19:05:34.316Z,6.83
2019-05-05T19:08:10.950Z,8.75
2019-05-05T19:10:45.909Z,6.40
2019-05-05T19:13:21.337Z,7.08
2019-05-05T19:15:55.750Z,7.30
2019-05-05T19:18:30.093Z,6.90
2019-05-05T19:21:06.546Z,6.40
2019-05-05T19:23:44.606Z,6.20
2019-05-05T19:26:18.374Z,6.15
2019-05-05T19:28:54.815Z,6.80
2019-05-05T19:31:28.542Z,8.85
2019-05-05T19:34:04.049Z,6.22
2019-05-05T19:39:43.972Z,7.08
2019-05-05T19:42:23.976Z,13.55
2019-05-05T19:44:59.550Z,13.15
2019-05-05T19:47:35.383Z,16.97
2019-05-05T19:50:17.760Z,15.30
2019-05-05T19:52:53.883Z,16.48
2019-05-05T19:55:28.575Z,16.55
2019-05-05T19:58:03.556Z,17.85
2019-05-05T20:00:38.626Z,21.37
2019-05-05T20:03:14.327Z,21.77
2019-05-05T20:05:48.476Z,25.68
2019-05-05T20:08:24.051Z,27.55
2019-05-05T20:10:59.523Z,26.30
2019-05-05T20:13:33.986Z,26.20
2019-05-05T20:16:09.290Z,21.93
2019-05-05T20:18:43.886Z,20.52
2019-05-05T20:21:18.261Z,22.35
2019-05-05T20:23:52.731Z,25.68
2019-05-05T20:26:28.300Z,26.37
2019-05-05T20:29:13.152Z,22.37
2019-05-05T20:31:38.729Z,23.32
2019-05-05T20:34:14.385Z,18.35
2019-05-05T20:37:06.819Z,16.12
2019-05-05T20:39:45.045Z,13.22
2019-05-05T20:42:19.522Z,13.20
2019-05-05T20:44:55.325Z,14.60
2019-05-05T20:47:29.807Z,11.35
2019-05-05T20:50:04.839Z,9.25
2019-05-05T20:52:39.258Z,9.45
2019-05-05T20:55:14.119Z,9.43
2019-05-05T20:57:48.821Z,9.73
2019-05-05T21:00:24.400Z,11.48
2019-05-05T21:02:58.580Z,10.38
2019-05-05T21:05:34.486Z,6.28
2019-05-05T21:08:10.120Z,7.00
2019-05-05T21:10:44.523Z,8.70
2019-05-05T21:13:18.985Z,6.70
2019-05-05T21:15:53.886Z,7.60
2019-05-05T21:18:29.555Z,7.17
2019-05-05T21:21:08.245Z,6.45
2019-05-05T21:23:46.629Z,5.90
2019-05-05T21:26:28.400Z,6.53
2019-05-05T21:29:06.127Z,8.60
2019-05-05T21:31:40.641Z,7.92
2019-05-05T21:34:14.966Z,6.80
2019-05-05T21:36:49.455Z,6.72
2019-05-05T21:39:24.940Z,7.45
2019-05-05T21:42:00.538Z,6.92
2019-05-05T21:44:35.157Z,7.10
2019-05-05T21:47:09.562Z,11.38
2019-05-05T21:49:44.037Z,7.70
2019-05-05T21:52:19.653Z,8.13
2019-05-05T21:54:55.336Z,9.10
2019-05-05T21:57:47.468Z,7.45
2019-05-05T22:00:30.484Z,8.80
2019-05-05T22:03:09.398Z,9.65
2019-05-05T22:05:46.021Z,8.40
2019-05-05T22:08:21.423Z,11.60
2019-05-05T22:10:55.786Z,11.88
2019-05-05T22:13:30.464Z,10.50
2019-05-05T22:16:05.141Z,8.85
2019-05-05T22:18:39.519Z,7.53
2019-05-05T22:21:18.130Z,8.83
2019-05-05T22:24:12.955Z,8.55
2019-05-05T22:26:46.425Z,7.12
2019-05-05T22:29:20.794Z,7.70
2019-05-05T22:31:55.157Z,8.55
2019-05-05T22:34:29.795Z,24.67
2019-05-05T22:37:08.951Z,42.23
2019-05-05T22:39:40.036Z,46.83
2019-05-05T22:42:15.731Z,64.55
2019-05-05T22:44:50.311Z,30.43
2019-05-05T22:47:24.828Z,18.15
2019-05-05T22:49:59.271Z,12.82
2019-05-05T22:52:34.373Z,9.23
2019-05-05T22:55:09.448Z,13.53
2019-05-05T22:57:45.189Z,15.40
2019-05-05T23:00:28.626Z,10.72
2019-05-05T23:03:09.945Z,19.90
2019-05-05T23:05:51.986Z,20.43
2019-05-05T23:08:26.438Z,10.28
2019-05-05T23:11:01.332Z,9.65
2019-05-05T23:13:35.748Z,11.85
2019-05-05T23:16:14.642Z,16.52
2019-05-05T23:18:50.229Z,32.80
2019-05-05T23:21:34.157Z,27.22
2019-05-05T23:24:23.944Z,28.60
2019-05-05T23:26:58.488Z,48.98
2019-05-05T23:29:34.130Z,52.25
2019-05-05T23:32:08.500Z,44.25
2019-05-05T23:34:44.448Z,34.60
2019-05-05T23:37:18.895Z,65.42
2019-05-05T23:39:54.105Z,40.17
2019-05-05T23:42:28.577Z,21.50
2019-05-05T23:45:04.451Z,20.72
2019-05-05T23:47:38.667Z,22.02
2019-05-05T23:50:15.286Z,19.75
2019-05-05T23:52:49.838Z,24.98
2019-05-05T23:55:24.444Z,36.08
2019-05-05T23:57:59.152Z,31.55
